createdAt,value
2022-07-25T00:02:15.703Z,8.93
2022-07-25T00:05:02.214Z,9.13
2022-07-25T00:07:47.495Z,9.55
2022-07-25T00:10:32.999Z,9.30
2022-07-25T00:13:17.974Z,9.95
2022-07-25T00:16:03.322Z,8.60
2022-07-25T00:18:48.573Z,9.32
2022-07-25T00:21:33.767Z,8.80
2022-07-25T00:24:18.592Z,8.70
2022-07-25T00:27:04.034Z,9.07
2022-07-25T00:29:49.101Z,9.65
2022-07-25T00:32:34.405Z,9.05
2022-07-25T00:35:19.739Z,9.07
2022-07-25T00:38:05.313Z,8.95
2022-07-25T00:40:54.219Z,8.82
2022-07-25T00:43:45.521Z,8.93
2022-07-25T00:46:30.913Z,8.75
2022-07-25T00:49:16.807Z,9.40
2022-07-25T00:52:02.235Z,8.65
2022-07-25T00:54:47.466Z,8.52
2022-07-25T00:57:32.737Z,8.93
2022-07-25T01:00:18.583Z,8.48
2022-07-25T01:03:04.279Z,7.78
2022-07-25T01:05:53.559Z,8.98
2022-07-25T01:08:39.158Z,8.50
2022-07-25T01:11:25.565Z,8.68
2022-07-25T01:14:10.391Z,8.73
2022-07-25T01:16:55.888Z,8.38
2022-07-25T01:19:41.183Z,8.48
2022-07-25T01:22:26.073Z,7.90
2022-07-25T01:25:13.235Z,8.13
2022-07-25T01:27:58.565Z,8.18
2022-07-25T01:30:44.288Z,8.45
2022-07-25T01:33:29.640Z,8.20
2022-07-25T01:36:14.701Z,8.07
2022-07-25T01:39:00.034Z,8.48
2022-07-25T01:41:45.197Z,8.15
2022-07-25T01:44:30.707Z,8.68
2022-07-25T01:47:15.837Z,7.90
2022-07-25T01:50:00.929Z,7.97
2022-07-25T01:52:46.469Z,8.52
2022-07-25T01:55:31.644Z,8.38
2022-07-25T01:58:17.741Z,8.05
2022-07-25T02:01:04.195Z,8.45
2022-07-25T02:03:49.693Z,8.00
2022-07-25T02:06:34.605Z,8.50
2022-07-25T02:09:19.683Z,7.78
2022-07-25T02:12:05.498Z,8.38
2022-07-25T02:14:50.857Z,8.40
2022-07-25T02:17:36.051Z,8.60
2022-07-25T02:20:21.578Z,7.97
2022-07-25T02:23:06.808Z,7.88
2022-07-25T02:25:52.170Z,8.02
2022-07-25T02:28:37.513Z,8.35
2022-07-25T02:31:22.582Z,8.25
2022-07-25T02:34:08.332Z,8.35
2022-07-25T02:36:53.623Z,8.27
2022-07-25T02:39:38.608Z,8.35
2022-07-25T02:42:23.722Z,8.32
2022-07-25T02:45:09.666Z,8.23
2022-07-25T02:47:54.944Z,8.60
2022-07-25T02:50:41.910Z,8.27
2022-07-25T02:53:54.407Z,8.02
2022-07-25T02:56:32.207Z,8.35
2022-07-25T02:59:17.362Z,8.38
2022-07-25T03:02:02.249Z,8.10
2022-07-25T03:04:47.735Z,8.35
2022-07-25T03:07:33.133Z,8.30
2022-07-25T03:10:18.556Z,8.40
2022-07-25T03:13:03.793Z,8.70
2022-07-25T03:15:49.128Z,8.90
2022-07-25T03:18:36.421Z,8.77
2022-07-25T03:21:21.768Z,8.15
2022-07-25T03:24:07.463Z,8.38
2022-07-25T03:26:52.948Z,8.15
2022-07-25T03:29:38.744Z,8.65
2022-07-25T03:32:24.195Z,8.65
2022-07-25T03:35:09.516Z,8.63
2022-07-25T03:37:54.641Z,8.60
2022-07-25T03:40:40.394Z,8.73
2022-07-25T03:43:25.446Z,8.48
2022-07-25T03:46:11.095Z,8.55
2022-07-25T03:48:56.488Z,8.40
2022-07-25T03:51:41.999Z,8.32
2022-07-25T03:54:27.367Z,8.35
2022-07-25T03:57:12.617Z,8.98
2022-07-25T03:59:58.017Z,8.57
2022-07-25T04:02:43.489Z,8.82
2022-07-25T04:05:28.817Z,8.98
2022-07-25T04:08:14.281Z,8.27
2022-07-25T04:10:59.229Z,8.93
2022-07-25T04:13:44.550Z,9.15
2022-07-25T04:16:30.345Z,8.85
2022-07-25T04:19:15.770Z,8.48
2022-07-25T04:22:02.249Z,9.48
2022-07-25T04:24:47.753Z,8.68
2022-07-25T04:27:33.114Z,8.98
2022-07-25T04:30:24.129Z,9.00
2022-07-25T04:33:09.701Z,9.20
2022-07-25T04:35:55.096Z,9.20
2022-07-25T04:38:40.460Z,9.80
2022-07-25T04:41:25.220Z,9.48
2022-07-25T04:44:10.213Z,9.30
2022-07-25T04:46:55.697Z,9.50
2022-07-25T04:49:40.498Z,8.85
2022-07-25T04:52:25.270Z,9.25
2022-07-25T04:55:11.184Z,8.20
2022-07-25T04:57:56.544Z,9.13
2022-07-25T05:00:42.173Z,9.27
2022-07-25T05:03:27.502Z,8.70
2022-07-25T05:06:12.559Z,8.60
2022-07-25T05:08:58.971Z,8.48
2022-07-25T05:11:48.646Z,8.95
2022-07-25T05:14:35.669Z,9.13
2022-07-25T05:17:21.322Z,8.70
2022-07-25T05:20:07.457Z,7.95
2022-07-25T05:22:53.217Z,8.25
2022-07-25T05:25:38.260Z,8.25
2022-07-25T05:28:23.559Z,7.97
2022-07-25T05:31:08.489Z,8.25
2022-07-25T05:33:53.826Z,8.32
2022-07-25T05:36:40.526Z,8.30
2022-07-25T05:39:27.079Z,8.07
2022-07-25T05:42:11.949Z,8.02
2022-07-25T05:44:57.304Z,7.95
2022-07-25T05:47:42.728Z,8.20
2022-07-25T05:50:28.057Z,7.85
2022-07-25T05:53:13.027Z,7.60
2022-07-25T05:55:58.337Z,8.30
2022-07-25T05:58:43.961Z,8.23
2022-07-25T06:01:29.376Z,7.45
2022-07-25T06:04:14.646Z,7.63
2022-07-25T06:07:00.114Z,7.40
2022-07-25T06:09:45.556Z,7.68
2022-07-25T06:12:30.936Z,7.60
2022-07-25T06:15:22.370Z,7.03
2022-07-25T06:18:08.119Z,7.18
2022-07-25T06:20:53.669Z,7.50
2022-07-25T06:23:38.931Z,7.63
2022-07-25T06:26:24.373Z,7.60
2022-07-25T06:29:10.383Z,7.30
2022-07-25T06:31:55.607Z,7.45
2022-07-25T06:34:40.972Z,7.70
2022-07-25T06:37:26.594Z,7.32
2022-07-25T06:40:12.137Z,7.70
2022-07-25T06:42:57.720Z,7.70
2022-07-25T06:45:42.793Z,7.70
2022-07-25T06:48:28.266Z,7.40
2022-07-25T06:51:13.717Z,7.10
2022-07-25T06:53:58.977Z,7.78
2022-07-25T06:56:44.287Z,7.32
2022-07-25T06:59:29.501Z,7.80
2022-07-25T07:02:14.855Z,7.45
2022-07-25T07:05:00.434Z,7.43
2022-07-25T07:07:47.933Z,7.05
2022-07-25T07:10:33.550Z,7.47
2022-07-25T07:13:23.958Z,7.63
2022-07-25T07:16:09.788Z,7.20
2022-07-25T07:18:55.665Z,7.07
2022-07-25T07:21:41.966Z,7.45
2022-07-25T07:24:27.370Z,6.95
2022-07-25T07:27:12.767Z,6.75
2022-07-25T07:29:57.631Z,6.60
2022-07-25T07:32:43.203Z,6.65
2022-07-25T07:35:28.542Z,6.78
2022-07-25T07:38:20.014Z,6.85
2022-07-25T07:41:04.889Z,6.85
2022-07-25T07:43:50.462Z,7.13
2022-07-25T07:46:35.556Z,7.60
2022-07-25T07:49:21.017Z,6.50
2022-07-25T07:52:06.475Z,6.38
2022-07-25T07:54:54.318Z,6.68
2022-07-25T07:57:41.742Z,6.78
2022-07-25T08:00:28.226Z,6.13
2022-07-25T08:03:18.204Z,6.65
2022-07-25T08:06:04.097Z,6.05
2022-07-25T08:08:49.597Z,6.18
2022-07-25T08:11:34.416Z,6.30
2022-07-25T08:14:19.843Z,6.10
2022-07-25T08:17:05.183Z,6.22
2022-07-25T08:19:51.494Z,5.78
2022-07-25T08:22:42.521Z,5.68
2022-07-25T08:25:27.587Z,6.13
2022-07-25T08:28:13.508Z,5.60
2022-07-25T08:30:59.208Z,6.10
2022-07-25T08:33:44.978Z,5.50
2022-07-25T08:36:34.559Z,5.50
2022-07-25T08:39:19.941Z,5.78
2022-07-25T08:42:10.810Z,5.90
2022-07-25T08:44:59.798Z,5.60
2022-07-25T08:47:46.431Z,5.30
2022-07-25T08:50:31.623Z,5.75
2022-07-25T08:53:34.794Z,5.53
2022-07-25T08:56:21.304Z,5.40
2022-07-25T08:59:06.445Z,5.65
2022-07-25T09:01:51.841Z,5.95
2022-07-25T09:04:37.425Z,5.60
2022-07-25T09:07:41.789Z,6.15
2022-07-25T09:10:28.360Z,5.82
2022-07-25T09:13:14.995Z,5.45
2022-07-25T09:15:59.956Z,5.85
2022-07-25T09:18:45.249Z,6.18
2022-07-25T09:21:30.305Z,5.40
2022-07-25T09:24:18.329Z,5.88
2022-07-25T09:27:12.626Z,6.35
2022-07-25T09:29:58.274Z,5.95
2022-07-25T09:32:43.493Z,5.78
2022-07-25T09:35:33.202Z,6.13
2022-07-25T09:38:20.462Z,6.18
2022-07-25T09:41:05.805Z,6.03
2022-07-25T09:43:51.098Z,5.85
2022-07-25T09:46:36.551Z,6.03
2022-07-25T09:49:21.922Z,6.38
2022-07-25T09:52:07.219Z,5.65
2022-07-25T09:54:52.900Z,5.68
2022-07-25T09:57:38.366Z,5.70
2022-07-25T10:00:29.022Z,5.70
2022-07-25T10:03:29.158Z,5.50
2022-07-25T10:06:39.118Z,5.93
2022-07-25T10:09:25.196Z,5.75
2022-07-25T10:12:12.741Z,5.60
2022-07-25T10:15:10.483Z,6.10
2022-07-25T10:18:03.804Z,5.97
2022-07-25T10:20:52.204Z,5.88
2022-07-25T10:23:37.726Z,5.63
2022-07-25T10:26:23.188Z,5.90
2022-07-25T10:29:10.259Z,5.40
2022-07-25T10:32:05.942Z,6.30
2022-07-25T10:34:54.457Z,6.07
2022-07-25T10:37:39.777Z,5.63
2022-07-25T10:40:39.492Z,5.75
2022-07-25T10:43:26.228Z,5.63
2022-07-25T10:46:14.389Z,5.80
2022-07-25T10:49:02.738Z,5.65
2022-07-25T10:51:59.414Z,5.65
2022-07-25T10:54:59.573Z,5.57
2022-07-25T10:58:07.891Z,5.50
2022-07-25T11:00:50.086Z,5.80
2022-07-25T11:03:35.587Z,5.60
2022-07-25T11:06:31.181Z,5.32
2022-07-25T11:09:28.774Z,5.75
2022-07-25T11:12:16.768Z,5.63
2022-07-25T11:15:05.242Z,5.90
2022-07-25T11:17:52.449Z,5.40
2022-07-25T11:20:37.790Z,5.50
2022-07-25T11:23:23.143Z,5.63
2022-07-25T11:26:10.961Z,5.72
2022-07-25T11:28:56.301Z,6.00
2022-07-25T11:31:41.936Z,6.03
2022-07-25T11:34:29.490Z,6.20
2022-07-25T11:37:15.899Z,5.78
2022-07-25T11:40:01.379Z,5.95
2022-07-25T11:42:57.222Z,6.25
2022-07-25T11:45:42.598Z,6.10
2022-07-25T11:48:39.774Z,5.93
2022-07-25T11:51:25.148Z,5.82
2022-07-25T11:54:11.372Z,6.35
2022-07-25T11:56:56.305Z,6.32
2022-07-25T11:59:42.559Z,6.13
2022-07-25T12:02:31.180Z,5.75
2022-07-25T12:05:19.827Z,6.10
2022-07-25T12:08:16.927Z,5.80
2022-07-25T12:11:02.480Z,5.80
2022-07-25T12:13:49.016Z,5.47
2022-07-25T12:16:35.474Z,6.45
2022-07-25T12:19:22.935Z,5.80
2022-07-25T12:22:08.028Z,6.00
2022-07-25T12:24:53.909Z,5.90
2022-07-25T12:27:39.766Z,5.63
2022-07-25T12:30:26.358Z,5.32
2022-07-25T12:33:12.036Z,5.60
2022-07-25T12:35:57.117Z,5.63
2022-07-25T12:38:42.590Z,5.82
2022-07-25T12:41:28.077Z,5.40
2022-07-25T12:44:13.373Z,5.55
2022-07-25T12:46:58.798Z,5.60
2022-07-25T12:49:44.145Z,5.40
2022-07-25T12:52:29.445Z,5.50
2022-07-25T12:55:18.017Z,6.20
2022-07-25T12:58:03.306Z,5.22
2022-07-25T13:00:48.396Z,5.75
2022-07-25T13:03:33.794Z,5.85
2022-07-25T13:06:19.209Z,6.28
2022-07-25T13:09:04.865Z,6.25
2022-07-25T13:11:50.505Z,6.38
2022-07-25T13:14:35.892Z,6.65
2022-07-25T13:17:25.059Z,6.90
2022-07-25T13:20:12.466Z,6.40
2022-07-25T13:22:57.849Z,6.07
2022-07-25T13:25:43.270Z,6.60
2022-07-25T13:28:29.174Z,6.50
2022-07-25T13:31:14.813Z,6.38
2022-07-25T13:34:00.004Z,6.50
2022-07-25T13:36:44.936Z,6.88
2022-07-25T13:39:30.296Z,7.18
2022-07-25T13:42:15.830Z,7.03
2022-07-25T13:45:01.017Z,7.00
2022-07-25T13:47:47.040Z,7.10
2022-07-25T13:50:35.572Z,7.22
2022-07-25T13:53:20.933Z,7.03
2022-07-25T13:56:06.151Z,6.70
2022-07-25T13:58:51.606Z,6.70
2022-07-25T14:01:36.956Z,6.85
2022-07-25T14:04:22.812Z,6.50
2022-07-25T14:07:08.239Z,6.43
2022-07-25T14:09:53.548Z,6.28
2022-07-25T14:12:38.588Z,6.10
2022-07-25T14:15:23.701Z,6.15
2022-07-25T14:18:09.125Z,6.10
2022-07-25T14:20:53.934Z,5.70
2022-07-25T14:23:39.445Z,6.00
2022-07-25T14:26:24.386Z,5.68
2022-07-25T14:29:09.670Z,5.35
2022-07-25T14:31:55.337Z,5.25
2022-07-25T14:34:40.586Z,5.30
2022-07-25T14:37:26.041Z,4.68
2022-07-25T14:40:12.191Z,4.72
2022-07-25T14:42:57.469Z,4.50
2022-07-25T14:45:42.937Z,4.13
2022-07-25T14:48:28.365Z,4.40
2022-07-25T14:51:13.317Z,3.92
2022-07-25T14:53:58.771Z,4.13
2022-07-25T14:56:44.483Z,3.90
2022-07-25T14:59:29.987Z,3.65
2022-07-25T15:02:15.094Z,3.40
2022-07-25T15:05:00.481Z,3.80
2022-07-25T15:07:45.847Z,3.53
2022-07-25T15:10:31.333Z,3.53
2022-07-25T15:13:32.656Z,3.75
2022-07-25T15:16:17.904Z,3.88
2022-07-25T15:19:16.503Z,3.40
2022-07-25T15:22:02.767Z,3.70
2022-07-25T15:25:27.263Z,3.50
2022-07-25T15:27:53.113Z,3.40
2022-07-25T15:30:38.474Z,3.70
2022-07-25T15:33:23.635Z,3.03
2022-07-25T15:36:09.007Z,3.03
2022-07-25T15:38:54.261Z,3.30
2022-07-25T15:41:39.661Z,3.05
2022-07-25T15:44:25.366Z,3.40
2022-07-25T15:47:10.917Z,3.08
2022-07-25T15:49:56.198Z,14.65
2022-07-25T15:52:42.171Z,10.85
2022-07-25T15:55:27.274Z,2.95
2022-07-25T15:58:13.801Z,3.15
2022-07-25T16:00:59.038Z,2.72
2022-07-25T16:03:44.420Z,2.92
2022-07-25T16:06:29.878Z,2.78
2022-07-25T16:09:15.292Z,2.95
2022-07-25T16:12:01.325Z,2.78
2022-07-25T16:14:46.492Z,2.70
2022-07-25T16:17:32.079Z,2.40
2022-07-25T16:20:17.636Z,2.47
2022-07-25T16:23:03.220Z,2.63
2022-07-25T16:25:48.409Z,2.83
2022-07-25T16:28:35.625Z,2.63
2022-07-25T16:31:20.751Z,2.63
2022-07-25T16:34:06.182Z,2.70
2022-07-25T16:36:51.887Z,3.13
2022-07-25T16:39:37.295Z,2.60
2022-07-25T16:42:22.806Z,3.30
2022-07-25T16:45:08.900Z,2.85
2022-07-25T16:47:54.264Z,3.10
2022-07-25T16:50:39.464Z,2.90
2022-07-25T16:53:24.728Z,3.25
2022-07-25T16:56:10.392Z,2.88
2022-07-25T16:58:55.699Z,3.38
2022-07-25T17:01:41.297Z,3.53
2022-07-25T17:04:26.541Z,3.45
2022-07-25T17:07:11.901Z,3.35
2022-07-25T17:09:57.364Z,3.53
2022-07-25T17:12:42.789Z,3.88
2022-07-25T17:15:28.284Z,17.17
2022-07-25T17:18:13.655Z,3.35
2022-07-25T17:20:59.134Z,3.53
2022-07-25T17:23:44.897Z,3.30
2022-07-25T17:26:30.301Z,2.95
2022-07-25T17:29:15.636Z,3.17
2022-07-25T17:32:01.116Z,3.55
2022-07-25T17:34:46.454Z,3.10
2022-07-25T17:37:31.773Z,3.22
2022-07-25T17:40:17.255Z,3.22
2022-07-25T17:43:02.784Z,3.42
2022-07-25T17:45:48.129Z,3.38
2022-07-25T17:48:33.643Z,3.22
2022-07-25T17:51:19.082Z,2.80
2022-07-25T17:54:04.834Z,2.92
2022-07-25T17:56:50.338Z,3.00
2022-07-25T17:59:35.893Z,2.58
2022-07-25T18:02:21.148Z,3.00
2022-07-25T18:05:07.030Z,2.80
2022-07-25T18:07:52.584Z,2.50
2022-07-25T18:10:38.026Z,2.60
2022-07-25T18:13:23.303Z,2.63
2022-07-25T18:16:09.993Z,2.70
2022-07-25T18:18:55.001Z,2.80
2022-07-25T18:21:40.387Z,2.50
2022-07-25T18:24:29.208Z,2.78
2022-07-25T18:27:14.677Z,2.75
2022-07-25T18:30:00.127Z,2.70
2022-07-25T18:32:45.534Z,2.50
2022-07-25T18:35:31.244Z,2.72
2022-07-25T18:38:16.796Z,2.50
2022-07-25T18:41:27.557Z,2.35
2022-07-25T18:44:07.007Z,2.78
2022-07-25T18:46:52.741Z,2.72
2022-07-25T18:49:38.112Z,2.65
2022-07-25T18:52:24.159Z,2.47
2022-07-25T18:55:09.812Z,2.80
2022-07-25T18:57:55.090Z,2.53
2022-07-25T19:00:40.058Z,2.40
2022-07-25T19:03:25.406Z,2.88
2022-07-25T19:06:10.999Z,7.32
2022-07-25T19:08:55.962Z,2.80
2022-07-25T19:11:42.389Z,2.67
2022-07-25T19:14:28.078Z,2.80
2022-07-25T19:17:13.176Z,2.60
2022-07-25T19:20:00.265Z,2.60
2022-07-25T19:22:45.351Z,2.60
2022-07-25T19:25:30.662Z,2.80
2022-07-25T19:28:15.589Z,2.83
2022-07-25T19:31:00.696Z,2.97
2022-07-25T19:33:46.037Z,2.63
2022-07-25T19:36:31.492Z,2.85
2022-07-25T19:39:16.630Z,3.03
2022-07-25T19:42:02.893Z,3.00
2022-07-25T19:44:47.978Z,2.95
2022-07-25T19:47:33.628Z,2.83
2022-07-25T19:50:19.496Z,3.20
2022-07-25T19:53:04.603Z,3.33
2022-07-25T19:55:49.985Z,3.30
2022-07-25T19:58:38.574Z,3.88
2022-07-25T20:01:24.452Z,3.88
2022-07-25T20:04:10.211Z,4.00
2022-07-25T20:06:55.596Z,4.05
2022-07-25T20:09:40.474Z,3.40
2022-07-25T20:12:25.288Z,3.80
2022-07-25T20:15:10.499Z,3.55
2022-07-25T20:17:55.592Z,3.50
2022-07-25T20:20:40.716Z,3.60
2022-07-25T20:23:26.680Z,3.28
2022-07-25T20:26:13.202Z,3.40
2022-07-25T20:28:58.153Z,3.72
2022-07-25T20:31:43.611Z,3.05
2022-07-25T20:34:28.737Z,3.33
2022-07-25T20:37:13.669Z,3.00
2022-07-25T20:39:58.925Z,3.03
2022-07-25T20:42:44.010Z,3.03
2022-07-25T20:45:29.323Z,2.90
2022-07-25T20:48:14.743Z,2.85
2022-07-25T20:51:00.806Z,2.70
2022-07-25T20:53:46.003Z,2.85
2022-07-25T20:56:38.499Z,2.70
2022-07-25T20:59:24.174Z,2.60
2022-07-25T21:02:09.748Z,2.45
2022-07-25T21:04:54.953Z,2.40
2022-07-25T21:07:40.322Z,2.22
2022-07-25T21:10:25.829Z,2.67
2022-07-25T21:13:11.191Z,2.40
2022-07-25T21:15:57.050Z,2.17
2022-07-25T21:18:42.653Z,2.03
2022-07-25T21:21:27.738Z,2.40
2022-07-25T21:24:13.007Z,2.90
2022-07-25T21:26:58.585Z,2.38
2022-07-25T21:29:44.015Z,2.53
2022-07-25T21:32:28.996Z,2.53
2022-07-25T21:35:14.482Z,2.65
2022-07-25T21:38:00.054Z,2.28
2022-07-25T21:40:45.229Z,2.20
2022-07-25T21:43:30.569Z,2.38
2022-07-25T21:46:15.581Z,2.20
2022-07-25T21:49:00.863Z,2.35
2022-07-25T21:51:46.254Z,2.47
2022-07-25T21:54:31.574Z,2.30
2022-07-25T21:57:17.029Z,2.20
2022-07-25T22:00:04.201Z,2.42
2022-07-25T22:02:49.824Z,2.50
2022-07-25T22:05:34.638Z,2.40
2022-07-25T22:08:19.911Z,2.28
2022-07-25T22:11:16.101Z,2.22
2022-07-25T22:14:10.680Z,2.20
2022-07-25T22:16:56.337Z,2.17
2022-07-25T22:19:41.621Z,2.10
2022-07-25T22:22:26.999Z,2.03
2022-07-25T22:25:12.670Z,2.05
2022-07-25T22:27:58.126Z,2.20
2022-07-25T22:30:43.447Z,2.40
2022-07-25T22:33:28.837Z,2.05
2022-07-25T22:36:14.264Z,2.30
2022-07-25T22:39:01.230Z,2.40
2022-07-25T22:41:46.589Z,2.20
2022-07-25T22:44:31.975Z,2.28
2022-07-25T22:47:17.373Z,2.10
2022-07-25T22:50:03.508Z,2.13
2022-07-25T22:52:48.474Z,2.10
2022-07-25T22:55:33.953Z,2.30
2022-07-25T22:58:19.322Z,2.60
2022-07-25T23:01:04.781Z,1.98
2022-07-25T23:03:50.464Z,2.20
2022-07-25T23:06:35.433Z,2.03
2022-07-25T23:09:20.412Z,1.92
2022-07-25T23:12:05.503Z,1.85
2022-07-25T23:14:50.722Z,1.80
2022-07-25T23:17:35.789Z,1.83
2022-07-25T23:20:21.039Z,2.47
2022-07-25T23:23:06.514Z,2.00
2022-07-25T23:25:51.919Z,1.80
2022-07-25T23:28:37.169Z,2.17
2022-07-25T23:31:22.477Z,1.80
2022-07-25T23:34:07.883Z,1.95
2022-07-25T23:36:53.426Z,2.08
2022-07-25T23:39:38.279Z,2.00
2022-07-25T23:42:23.721Z,1.90
2022-07-25T23:45:09.311Z,1.88
2022-07-25T23:47:56.807Z,1.80
2022-07-25T23:50:41.917Z,2.15
2022-07-25T23:53:27.335Z,2.30
2022-07-25T23:56:17.379Z,2.08
2022-07-25T23:59:06.148Z,2.35
